Time;durP1;ratioP1;P1;durP2;ratioP2;P2;SDS_P1;SDS_P2;PMS_P1;PMS_P2;Temp;Humidity;BMP_temperature;BMP_pressure;BME280_temperature;BME280_humidity;BME280_pressure;Samples;Min_cycle;Max_cycle;Signal;HPM_P1;HPM_P2
2022/11/27 00:01:20;;;;;;;2.72;2.05;;;5.30;99.90;;;;;;5040005;28;21165;-78
2022/11/27 00:03:56;;;;;;;2.17;2.00;;;5.30;99.90;;;;;;5053485;28;20430;-79
2022/11/27 00:06:42;;;;;;;2.33;2.13;;;5.30;99.90;;;;;;5040463;28;20512;-78
2022/11/27 00:09:14;;;;;;;9.52;2.28;;;5.30;99.90;;;;;;5047503;28;20435;-78
2022/11/27 00:11:41;;;;;;;1.95;1.35;;;5.30;99.90;;;;;;5048378;28;20433;-79
2022/11/27 00:14:14;;;;;;;2.15;1.63;;;5.30;99.90;;;;;;5043685;28;20433;-79
2022/11/27 00:16:41;;;;;;;4.03;2.58;;;5.30;99.90;;;;;;5042601;28;20445;-78
2022/11/27 00:19:10;;;;;;;3.33;2.63;;;5.30;99.90;;;;;;5037577;28;20430;-77
2022/11/27 00:21:37;;;;;;;4.00;2.17;;;5.30;99.90;;;;;;5053059;28;20453;-77
2022/11/27 00:24:08;;;;;;;2.73;1.93;;;5.40;1.00;;;;;;5043521;28;20787;-78
2022/11/27 00:26:35;;;;;;;1.92;1.58;;;5.40;1.00;;;;;;5046726;28;20495;-78
2022/11/27 00:29:04;;;;;;;2.75;2.17;;;5.40;1.00;;;;;;5044319;28;20437;-78
2022/11/27 00:31:35;;;;;;;5.25;2.88;;;5.40;1.00;;;;;;5044682;28;20460;-77
2022/11/27 00:34:06;;;;;;;2.22;2.03;;;5.40;1.00;;;;;;5033305;28;20902;-78
2022/11/27 00:36:33;;;;;;;2.10;2.00;;;5.40;1.00;;;;;;5039953;28;20434;-78
2022/11/27 00:39:03;;;;;;;3.17;1.77;;;5.50;1.00;;;;;;5036626;28;20787;-78
2022/11/27 00:41:30;;;;;;;6.10;2.10;;;5.50;1.00;;;;;;5044434;28;20982;-78
2022/11/27 00:43:57;;;;;;;1.85;1.50;;;5.50;1.00;;;;;;5045914;28;20927;-77
2022/11/27 00:46:29;;;;;;;3.75;2.30;;;5.50;1.00;;;;;;5053073;28;20434;-77
2022/11/27 00:48:57;;;;;;;2.22;2.00;;;5.50;1.00;;;;;;5047927;28;20433;-77
2022/11/27 00:51:24;;;;;;;2.10;1.63;;;5.50;1.00;;;;;;5033899;28;20441;-77
2022/11/27 00:53:52;;;;;;;4.20;1.70;;;5.50;1.00;;;;;;5049403;28;20773;-78
2022/11/27 00:56:25;;;;;;;4.43;2.45;;;5.50;1.00;;;;;;5045709;28;20440;-77
2022/11/27 00:58:52;;;;;;;3.00;2.38;;;5.60;1.00;;;;;;5043508;28;20433;-78
2022/11/27 01:01:21;;;;;;;3.70;2.45;;;5.60;1.00;;;;;;5041587;28;20431;-78
2022/11/27 01:03:49;;;;;;;2.25;1.90;;;5.60;1.00;;;;;;5039302;28;20440;-77
2022/11/27 01:06:17;;;;;;;4.47;1.92;;;5.70;1.00;;;;;;5041643;28;20427;-78
2022/11/27 01:08:45;;;;;;;3.73;2.40;;;5.70;1.00;;;;;;5042922;28;22796;-77
2022/11/27 01:11:18;;;;;;;2.42;2.22;;;5.70;1.00;;;;;;5037565;28;20442;-77
2022/11/27 01:13:45;;;;;;;3.17;2.35;;;5.60;1.00;;;;;;5032739;28;20435;-77
2022/11/27 01:16:18;;;;;;;2.35;2.13;;;5.60;1.00;;;;;;5044081;28;21209;-77
2022/11/27 01:18:47;;;;;;;1.70;1.60;;;5.50;1.00;;;;;;5031900;28;20455;-77
2022/11/27 01:21:17;;;;;;;2.40;1.85;;;5.50;1.00;;;;;;5040476;28;20425;-77
2022/11/27 01:23:45;;;;;;;1.42;1.20;;;5.40;1.00;;;;;;5046955;28;20466;-77
2022/11/27 01:26:12;;;;;;;1.05;1.05;;;5.30;1.00;;;;;;5048304;28;20436;-80
2022/11/27 01:28:40;;;;;;;1.40;1.30;;;5.20;1.00;;;;;;5043601;28;20504;-77
2022/11/27 01:31:11;;;;;;;4.65;1.40;;;5.10;1.00;;;;;;5038205;28;21788;-77
2022/11/27 01:33:38;;;;;;;1.60;1.20;;;5.00;1.00;;;;;;5038023;28;20437;-78
2022/11/27 01:36:06;;;;;;;2.65;1.83;;;4.90;1.00;;;;;;5051985;28;20459;-78
2022/11/27 01:38:34;;;;;;;2.35;1.48;;;4.70;1.00;;;;;;5054499;28;20429;-78
2022/11/27 01:41:21;;;;;;;1.25;1.15;;;4.50;1.00;;;;;;5049866;28;20425;-78
2022/11/27 01:43:54;;;;;;;1.65;1.08;;;4.30;1.00;;;;;;5049489;28;20429;-78
2022/11/27 01:46:38;;;;;;;4.30;0.90;;;4.10;99.90;;;;;;5046147;28;20989;-78
2022/11/27 01:49:08;;;;;;;0.93;0.93;;;4.00;99.90;;;;;;5043316;28;20436;-78
2022/11/27 01:51:45;;;;;;;2.72;1.27;;;3.90;1.00;;;;;;5050785;28;20930;-78
2022/11/27 01:54:15;;;;;;;3.17;0.93;;;3.80;50.60;;;;;;5048939;28;20433;-79
2022/11/27 01:56:45;;;;;;;3.97;0.70;;;3.70;99.90;;;;;;5050645;28;20435;-78
2022/11/27 01:59:19;;;;;;;1.70;0.93;;;3.50;99.90;;;;;;5049501;28;20964;-78
2022/11/27 02:01:48;;;;;;;0.60;0.60;;;3.40;99.90;;;;;;5040872;28;20434;-78
2022/11/27 02:04:17;;;;;;;1.48;1.38;;;3.30;1.00;;;;;;5047487;28;20507;-78
2022/11/27 02:06:44;;;;;;;4.80;1.30;;;3.10;1.00;;;;;;5041785;28;21117;-79
2022/11/27 02:09:13;;;;;;;1.35;1.25;;;3.00;32.10;;;;;;5034953;28;20489;-79
2022/11/27 02:11:55;;;;;;;2.30;0.90;;;2.90;99.90;;;;;;5045343;28;21149;-79
2022/11/27 02:14:37;;;;;;;0.70;0.70;;;2.80;1.00;;;;;;5039778;28;20801;-78
2022/11/27 02:17:35;;;;;;;0.52;0.52;;;2.70;1.00;;;;;;5042342;28;20433;-78
2022/11/27 02:20:17;;;;;;;0.40;0.30;;;2.60;1.00;;;;;;5048449;28;20435;-78
2022/11/27 02:23:22;;;;;;;2.13;1.00;;;2.70;1.00;;;;;;5047672;28;20965;-78
2022/11/27 02:25:58;;;;;;;0.90;0.90;;;2.60;99.90;;;;;;5041038;28;20941;-79
2022/11/27 02:29:04;;;;;;;0.70;0.70;;;2.50;99.90;;;;;;5051566;28;20440;-79
2022/11/27 02:31:46;;;;;;;0.80;0.80;;;2.50;1.00;;;;;;5031029;28;20913;-79
2022/11/27 02:34:22;;;;;;;0.70;0.70;;;2.40;22.30;;;;;;5074638;28;20466;-79
2022/11/27 02:36:56;;;;;;;2.30;1.98;;;2.40;71.20;;;;;;5031704;28;20434;-79
2022/11/27 02:39:31;;;;;;;0.90;0.90;;;2.30;90.10;;;;;;5044607;28;20440;-78
2022/11/27 02:42:19;;;;;;;1.60;1.08;;;2.10;99.90;;;;;;5049378;28;20468;-79
2022/11/27 02:44:53;;;;;;;0.90;0.70;;;2.00;99.90;;;;;;5050040;28;20429;-79
2022/11/27 02:47:21;;;;;;;3.80;0.90;;;1.80;99.90;;;;;;5042703;28;20432;-79
2022/11/27 02:49:51;;;;;;;1.30;0.90;;;1.80;99.90;;;;;;5036140;28;20443;-79
2022/11/27 02:52:19;;;;;;;1.55;0.82;;;1.80;99.90;;;;;;5035913;28;20520;-79
2022/11/27 02:54:49;;;;;;;0.73;0.73;;;1.80;99.90;;;;;;5042466;28;20431;-78
2022/11/27 02:57:18;;;;;;;1.30;1.05;;;1.90;1.00;;;;;;5042124;28;20429;-80
2022/11/27 02:59:47;;;;;;;0.82;0.82;;;2.00;1.00;;;;;;5037002;28;20442;-79
2022/11/27 03:02:20;;;;;;;0.80;0.80;;;1.90;1.00;;;;;;5041039;28;20442;-79
2022/11/27 03:04:53;;;;;;;2.47;0.70;;;1.80;1.00;;;;;;5042069;28;20462;-79
2022/11/27 03:07:39;;;;;;;0.95;0.85;;;1.60;1.00;;;;;;5043592;28;20938;-79
2022/11/27 03:10:16;;;;;;;1.45;1.20;;;1.50;1.00;;;;;;5046845;28;20437;-79
2022/11/27 03:12:47;;;;;;;3.97;1.08;;;1.50;1.00;;;;;;5045302;28;20843;-78
2022/11/27 03:15:14;;;;;;;0.60;0.57;;;1.40;1.00;;;;;;5042922;28;20448;-78
2022/11/27 03:17:53;;;;;;;2.45;1.17;;;1.30;1.00;;;;;;5031630;28;20778;-78
2022/11/27 03:20:34;;;;;;;1.17;1.10;;;1.30;1.00;;;;;;5033282;28;20438;-77
2022/11/27 03:23:01;;;;;;;3.13;0.80;;;1.30;1.00;;;;;;5043587;28;20437;-77
2022/11/27 03:25:27;;;;;;;0.70;0.70;;;1.30;1.00;;;;;;5038209;28;20437;-78
2022/11/27 03:28:03;;;;;;;0.90;0.80;;;1.30;1.00;;;;;;5044116;28;20434;-77
2022/11/27 03:30:30;;;;;;;0.85;0.85;;;1.10;1.00;;;;;;5043447;28;20438;-77
2022/11/27 03:32:57;;;;;;;1.00;0.90;;;1.00;1.00;;;;;;5037021;28;20526;-77
2022/11/27 03:35:25;;;;;;;0.98;0.77;;;0.90;1.00;;;;;;5045112;28;21134;-77
2022/11/27 03:37:53;;;;;;;0.82;0.82;;;0.80;1.00;;;;;;5052013;28;20433;-77
2022/11/27 03:40:24;;;;;;;4.50;0.80;;;0.80;1.00;;;;;;5052871;28;20429;-77
2022/11/27 03:43:13;;;;;;;2.20;1.20;;;0.90;1.00;;;;;;5039939;28;20425;-77
2022/11/27 03:45:49;;;;;;;1.03;0.97;;;0.90;1.00;;;;;;5050961;28;20436;-77
2022/11/27 03:48:47;;;;;;;0.55;0.55;;;0.90;1.00;;;;;;5046205;28;20911;-77
2022/11/27 03:51:30;;;;;;;0.50;0.50;;;0.90;1.00;;;;;;5044529;28;20457;-77
2022/11/27 03:54:29;;;;;;;0.80;0.60;;;1.00;1.00;;;;;;5041887;28;20439;-77
2022/11/27 03:57:38;;;;;;;0.80;0.80;;;1.00;1.00;;;;;;5029966;28;20442;-77
2022/11/27 04:00:07;;;;;;;0.77;0.77;;;1.00;1.00;;;;;;5042651;28;20452;-77
2022/11/27 04:02:52;;;;;;;0.57;0.57;;;0.90;1.00;;;;;;5044187;28;20433;-77
2022/11/27 04:05:19;;;;;;;0.90;0.90;;;0.80;1.00;;;;;;5044187;28;20433;-77
2022/11/27 04:07:46;;;;;;;0.95;0.95;;;0.70;1.00;;;;;;5044391;28;20432;-77
2022/11/27 04:10:14;;;;;;;0.80;0.80;;;0.70;1.00;;;;;;5040187;28;20487;-77
2022/11/27 04:12:41;;;;;;;2.00;1.00;;;0.60;1.00;;;;;;5045122;28;20437;-77
2022/11/27 04:15:08;;;;;;;0.90;0.90;;;0.50;1.00;;;;;;5038640;28;20511;-77
2022/11/27 04:17:35;;;;;;;0.60;0.60;;;0.40;1.00;;;;;;5052027;28;20963;-77
2022/11/27 04:20:02;;;;;;;1.50;0.70;;;0.30;1.00;;;;;;5041461;28;20435;-77
2022/11/27 04:22:29;;;;;;;8.02;0.93;;;0.20;1.00;;;;;;5046579;28;20440;-77
2022/11/27 04:24:56;;;;;;;0.70;0.70;;;0.20;1.00;;;;;;5047517;28;20449;-78
2022/11/27 04:27:22;;;;;;;0.90;0.90;;;0.10;1.00;;;;;;5032690;28;20438;-78
2022/11/27 04:29:49;;;;;;;1.63;1.27;;;0.10;1.00;;;;;;5032544;28;20500;-78
2022/11/27 04:32:16;;;;;;;1.20;0.85;;;0.20;1.00;;;;;;5044005;28;20431;-77
2022/11/27 04:34:43;;;;;;;0.90;0.63;;;0.30;4.30;;;;;;5032382;28;20523;-78
2022/11/27 04:37:09;;;;;;;0.68;0.68;;;0.30;19.20;;;;;;5041244;28;20444;-77
2022/11/27 04:39:36;;;;;;;0.47;0.47;;;0.40;32.30;;;;;;5042148;28;20477;-77
2022/11/27 04:42:03;;;;;;;1.00;1.00;;;0.40;39.10;;;;;;5041994;28;20422;-78
2022/11/27 04:44:30;;;;;;;1.05;0.80;;;0.50;43.80;;;;;;5034244;28;20423;-78
2022/11/27 04:46:59;;;;;;;0.63;0.63;;;0.40;43.30;;;;;;5036231;28;20427;-77
2022/11/27 04:49:26;;;;;;;1.00;0.90;;;0.40;35.20;;;;;;5031954;28;20469;-77
2022/11/27 04:51:55;;;;;;;0.60;0.60;;;0.30;29.50;;;;;;5045688;28;20509;-77
2022/11/27 04:54:21;;;;;;;0.77;0.77;;;0.20;36.10;;;;;;5044535;28;20806;-77
2022/11/27 04:56:48;;;;;;;0.52;0.52;;;0.30;51.30;;;;;;5041687;28;20483;-77
2022/11/27 04:59:15;;;;;;;0.93;0.80;;;0.30;60.80;;;;;;5031938;28;20771;-77
2022/11/27 05:01:41;;;;;;;0.75;0.75;;;0.30;76.00;;;;;;5042673;28;20429;-77
2022/11/27 05:04:08;;;;;;;0.65;0.65;;;0.30;69.90;;;;;;5041319;28;20425;-77
2022/11/27 05:06:35;;;;;;;1.20;0.60;;;0.10;66.00;;;;;;5037106;28;20486;-77
2022/11/27 05:09:01;;;;;;;0.30;0.30;;;0.20;81.00;;;;;;5048518;28;20437;-77
2022/11/27 05:11:29;;;;;;;0.70;0.70;;;0.30;94.60;;;;;;5046848;28;20429;-77
2022/11/27 05:14:15;;;;;;;1.35;1.15;;;0.30;98.90;;;;;;5048367;28;20429;-77
2022/11/27 05:16:44;;;;;;;0.70;0.70;;;0.20;93.10;;;;;;5055864;28;20907;-77
2022/11/27 05:19:15;;;;;;;0.70;0.65;;;0.00;80.80;;;;;;5042249;28;20431;-77
2022/11/27 05:21:45;;;;;;;0.70;0.70;;;-0.10;86.50;;;;;;5044925;28;20848;-77
2022/11/27 05:24:16;;;;;;;0.50;0.50;;;-0.10;80.00;;;;;;5040885;28;20425;-77
2022/11/27 05:26:43;;;;;;;1.55;0.95;;;-0.30;70.50;;;;;;5048954;28;20433;-77
2022/11/27 05:29:11;;;;;;;0.80;0.80;;;-0.40;74.70;;;;;;5045215;28;20555;-77
2022/11/27 05:31:38;;;;;;;1.00;0.55;;;-0.40;84.10;;;;;;5050189;28;20433;-77
2022/11/27 05:34:06;;;;;;;1.00;0.60;;;-0.40;85.90;;;;;;5047911;28;20460;-77
2022/11/27 05:36:33;;;;;;;1.00;0.65;;;-0.50;90.00;;;;;;5047144;28;20421;-77
2022/11/27 05:39:02;;;;;;;0.57;0.30;;;-0.50;92.90;;;;;;5047456;28;20425;-77
2022/11/27 05:41:29;;;;;;;0.70;0.52;;;-0.60;88.80;;;;;;5050132;28;20465;-77
2022/11/27 05:43:56;;;;;;;0.45;0.45;;;-0.60;83.40;;;;;;5046367;28;20512;-77
2022/11/27 05:46:22;;;;;;;1.60;1.08;;;-0.70;86.00;;;;;;5042005;28;20431;-77
2022/11/27 05:48:49;;;;;;;0.40;0.40;;;-0.70;94.20;;;;;;5048581;28;20769;-77
2022/11/27 05:51:16;;;;;;;1.80;0.52;;;-0.70;97.10;;;;;;5039593;28;20829;-78
2022/11/27 05:53:44;;;;;;;0.50;0.40;;;-0.80;90.30;;;;;;5041726;28;20445;-78
2022/11/27 05:56:15;;;;;;;0.30;0.30;;;-0.90;88.60;;;;;;5040768;28;20435;-78
2022/11/27 05:58:47;;;;;;;0.77;0.77;;;-0.90;86.70;;;;;;5036968;28;20497;-77
2022/11/27 06:01:15;;;;;;;0.82;0.73;;;-0.90;93.00;;;;;;5045245;28;20441;-77
2022/11/27 06:03:42;;;;;;;0.88;0.88;;;-0.80;98.50;;;;;;5036714;28;20427;-77
2022/11/27 06:06:12;;;;;;;0.60;0.60;;;-0.80;99.90;;;;;;5048707;28;20464;-77
2022/11/27 06:08:40;;;;;;;4.50;0.90;;;-0.80;98.10;;;;;;5036265;28;20426;-77
2022/11/27 06:11:09;;;;;;;0.32;0.32;;;-0.80;99.00;;;;;;5039426;28;20915;-77
2022/11/27 06:13:36;;;;;;;0.40;0.40;;;-0.80;97.40;;;;;;5042481;28;20965;-78
2022/11/27 06:16:15;;;;;;;0.68;0.68;;;-0.80;99.60;;;;;;5042802;28;20524;-78
2022/11/27 06:18:43;;;;;;;2.67;0.68;;;-0.80;99.00;;;;;;5048754;28;20431;-77
2022/11/27 06:21:14;;;;;;;1.05;0.85;;;-0.90;96.30;;;;;;5048939;28;20437;-77
2022/11/27 06:23:43;;;;;;;1.25;0.77;;;-0.90;95.10;;;;;;5035959;28;20432;-77
2022/11/27 06:26:21;;;;;;;0.60;0.60;;;-0.90;97.40;;;;;;5044217;28;21985;-77
2022/11/27 06:28:48;;;;;;;1.50;1.40;;;-0.90;99.60;;;;;;5037056;28;20445;-78
2022/11/27 06:31:22;;;;;;;1.90;0.80;;;-0.90;99.90;;;;;;5050350;28;20432;-77
2022/11/27 06:33:51;;;;;;;0.53;0.53;;;-0.90;99.90;;;;;;5045598;28;20520;-78
2022/11/27 06:36:24;;;;;;;1.40;1.10;;;-0.80;99.90;;;;;;5046665;28;20524;-78
2022/11/27 06:38:51;;;;;;;0.45;0.45;;;-0.70;99.90;;;;;;5036979;28;20435;-77
2022/11/27 06:41:22;;;;;;;0.38;0.38;;;-0.50;99.90;;;;;;5046615;28;21055;-78
2022/11/27 06:43:50;;;;;;;1.00;1.00;;;-0.30;99.90;;;;;;5044084;28;20517;-75
2022/11/27 06:46:18;;;;;;;2.20;0.50;;;-0.20;99.90;;;;;;5039532;28;20464;-75
2022/11/27 06:48:50;;;;;;;0.90;0.70;;;-0.10;99.90;;;;;;5038332;28;20430;-75
2022/11/27 06:51:22;;;;;;;0.40;0.40;;;0.10;99.90;;;;;;5038424;28;20427;-75
2022/11/27 06:53:51;;;;;;;2.35;0.77;;;0.20;99.90;;;;;;5040850;28;20518;-75
2022/11/27 06:56:20;;;;;;;1.30;1.20;;;0.40;99.90;;;;;;5034837;28;20431;-75
2022/11/27 06:58:53;;;;;;;0.95;0.52;;;0.50;99.90;;;;;;5041256;28;20430;-75
2022/11/27 07:01:21;;;;;;;0.90;0.90;;;0.60;99.90;;;;;;5042701;28;20432;-75
2022/11/27 07:03:48;;;;;;;0.35;0.35;;;0.70;99.90;;;;;;5041560;28;20475;-75
2022/11/27 07:06:18;;;;;;;0.73;0.73;;;0.80;99.90;;;;;;5039364;28;20441;-75
2022/11/27 07:08:45;;;;;;;0.45;0.45;;;0.90;99.90;;;;;;5043693;28;20426;-75
2022/11/27 07:11:19;;;;;;;0.43;0.43;;;0.90;99.90;;;;;;5041572;28;20463;-75
2022/11/27 07:13:47;;;;;;;0.50;0.50;;;1.00;99.90;;;;;;5041168;28;20761;-75
2022/11/27 07:16:15;;;;;;;0.63;0.52;;;1.00;99.90;;;;;;5043425;28;20442;-75
2022/11/27 07:18:44;;;;;;;0.67;0.67;;;1.00;99.90;;;;;;5046361;28;20431;-75
2022/11/27 07:21:11;;;;;;;0.75;0.65;;;1.10;99.90;;;;;;5040430;28;20429;-75
2022/11/27 07:23:38;;;;;;;1.30;0.90;;;1.10;99.90;;;;;;5039986;28;20851;-75
2022/11/27 07:26:14;;;;;;;1.60;1.23;;;1.20;99.90;;;;;;5044792;28;20911;-75
2022/11/27 07:28:44;;;;;;;0.80;0.52;;;1.30;99.90;;;;;;5038114;28;20928;-75
2022/11/27 07:31:13;;;;;;;1.40;1.15;;;1.40;99.90;;;;;;5037963;28;20512;-75
2022/11/27 07:33:40;;;;;;;2.40;1.33;;;1.50;99.90;;;;;;5040322;28;20426;-75
2022/11/27 07:36:16;;;;;;;0.82;0.82;;;1.60;99.90;;;;;;5044739;28;20433;-75
2022/11/27 07:38:44;;;;;;;1.40;1.30;;;1.70;99.90;;;;;;5039584;28;20431;-75
2022/11/27 07:41:11;;;;;;;4.13;1.30;;;1.80;99.90;;;;;;5037493;28;20437;-75
2022/11/27 07:43:39;;;;;;;1.52;1.10;;;1.90;99.90;;;;;;5040030;28;20422;-75
2022/11/27 07:46:10;;;;;;;0.70;0.70;;;2.00;99.90;;;;;;5038375;28;20448;-75
2022/11/27 07:48:37;;;;;;;1.50;1.08;;;2.20;99.90;;;;;;5034780;28;20437;-75
2022/11/27 07:51:08;;;;;;;0.98;0.95;;;2.30;99.90;;;;;;5036384;28;20907;-74
2022/11/27 07:53:37;;;;;;;1.90;1.52;;;2.40;99.90;;;;;;5033816;28;20439;-74
2022/11/27 07:56:11;;;;;;;1.52;1.42;;;2.40;99.90;;;;;;5034082;28;20429;-75
2022/11/27 07:58:38;;;;;;;1.90;1.42;;;2.40;99.90;;;;;;5039595;28;20478;-74
2022/11/27 08:01:08;;;;;;;4.85;3.47;;;2.30;99.90;;;;;;5041818;28;20453;-74
2022/11/27 08:03:35;;;;;;;1.73;1.63;;;2.20;99.90;;;;;;5037485;28;20430;-75
2022/11/27 08:06:02;;;;;;;1.60;1.45;;;2.20;99.90;;;;;;5043368;28;20456;-74
2022/11/27 08:08:29;;;;;;;1.05;0.95;;;2.20;99.90;;;;;;5041238;28;20429;-74
2022/11/27 08:10:58;;;;;;;0.43;0.43;;;2.10;99.90;;;;;;5042309;28;20437;-74
2022/11/27 08:13:24;;;;;;;1.15;1.05;;;2.10;99.90;;;;;;5040967;28;20461;-75
2022/11/27 08:15:51;;;;;;;1.15;1.15;;;2.20;99.90;;;;;;5038882;28;20462;-75
2022/11/27 08:18:18;;;;;;;1.23;1.13;;;2.20;99.90;;;;;;5044699;28;20444;-74
2022/11/27 08:20:45;;;;;;;0.90;0.70;;;2.40;99.90;;;;;;5038435;28;20446;-74
2022/11/27 08:23:11;;;;;;;0.97;0.97;;;2.40;99.90;;;;;;5044176;28;20433;-75
2022/11/27 08:25:38;;;;;;;1.25;0.95;;;2.50;99.90;;;;;;5042211;28;20435;-75
2022/11/27 08:28:05;;;;;;;1.27;1.05;;;2.40;99.90;;;;;;5032687;28;20457;-75
2022/11/27 08:30:31;;;;;;;1.33;1.33;;;2.40;99.90;;;;;;5035490;28;20431;-75
2022/11/27 08:33:00;;;;;;;0.60;0.60;;;2.40;99.90;;;;;;5034039;28;20487;-75
2022/11/27 08:35:27;;;;;;;4.30;2.08;;;2.50;99.90;;;;;;5039306;28;20440;-74
2022/11/27 08:37:54;;;;;;;1.52;1.20;;;2.70;99.90;;;;;;5040238;28;20461;-75
2022/11/27 08:40:26;;;;;;;1.75;1.67;;;2.90;99.90;;;;;;5046996;28;20851;-78
2022/11/27 08:42:53;;;;;;;3.75;1.60;;;2.90;99.90;;;;;;5038964;28;20431;-75
2022/11/27 08:45:20;;;;;;;3.10;1.40;;;2.90;99.90;;;;;;5045388;28;20432;-75
2022/11/27 08:47:48;;;;;;;0.80;0.80;;;3.00;99.90;;;;;;5042797;28;20506;-75
2022/11/27 08:50:15;;;;;;;0.73;0.73;;;3.10;99.90;;;;;;5039273;28;20429;-75
2022/11/27 08:52:44;;;;;;;1.00;1.00;;;3.20;99.90;;;;;;5040156;28;20469;-75
2022/11/27 08:55:14;;;;;;;0.80;0.80;;;3.30;99.90;;;;;;5043401;28;20511;-75
2022/11/27 08:57:40;;;;;;;1.30;1.25;;;3.50;99.90;;;;;;5038691;28;20425;-75
2022/11/27 09:00:11;;;;;;;1.75;1.48;;;3.60;99.90;;;;;;5038776;28;20426;-75
2022/11/27 09:02:38;;;;;;;1.35;1.33;;;3.60;99.90;;;;;;5041247;28;20489;-75
2022/11/27 09:05:05;;;;;;;1.73;1.63;;;3.50;99.90;;;;;;5039754;28;20453;-75
2022/11/27 09:07:34;;;;;;;1.83;1.25;;;3.30;99.90;;;;;;5042517;28;21000;-75
2022/11/27 09:10:01;;;;;;;1.65;1.25;;;3.20;99.90;;;;;;5033304;28;20493;-75
2022/11/27 09:12:28;;;;;;;2.30;2.00;;;3.20;99.90;;;;;;5039046;28;20431;-76
2022/11/27 09:14:55;;;;;;;4.72;1.58;;;3.20;99.90;;;;;;5038970;28;20444;-76
2022/11/27 09:17:21;;;;;;;1.05;0.93;;;3.20;99.90;;;;;;5047183;28;20900;-76
2022/11/27 09:19:48;;;;;;;1.70;1.60;;;3.30;99.90;;;;;;5041467;28;20496;-75
2022/11/27 09:22:18;;;;;;;1.98;1.73;;;3.50;99.90;;;;;;5041140;28;20431;-75
2022/11/27 09:24:45;;;;;;;0.80;0.80;;;3.80;99.90;;;;;;5051087;28;20442;-75
2022/11/27 09:27:14;;;;;;;1.90;1.63;;;3.90;99.90;;;;;;5037226;28;20420;-76
2022/11/27 09:29:41;;;;;;;1.65;1.55;;;3.90;99.90;;;;;;5038482;28;20838;-76
2022/11/27 09:32:08;;;;;;;3.97;2.67;;;3.80;99.90;;;;;;5043651;28;20427;-76
2022/11/27 09:34:35;;;;;;;3.97;1.80;;;3.90;99.90;;;;;;5036520;28;20953;-76
2022/11/27 09:37:03;;;;;;;1.83;1.48;;;3.90;99.90;;;;;;5045504;28;20502;-76
2022/11/27 09:39:32;;;;;;;2.17;1.83;;;4.00;99.90;;;;;;5032925;28;20475;-76
2022/11/27 09:42:05;;;;;;;2.03;1.88;;;4.10;99.90;;;;;;5037639;28;20531;-76
2022/11/27 09:44:54;;;;;;;1.52;1.48;;;4.10;99.90;;;;;;5055898;28;20427;-75
2022/11/27 09:47:36;;;;;;;3.13;1.85;;;4.00;99.90;;;;;;5043923;28;20520;-76
2022/11/27 09:50:16;;;;;;;2.38;1.30;;;4.20;99.90;;;;;;5049979;28;20429;-75
2022/11/27 09:52:43;;;;;;;2.88;1.70;;;4.30;99.90;;;;;;5036273;28;20437;-76
2022/11/27 09:55:13;;;;;;;1.65;1.55;;;4.00;99.90;;;;;;5036197;28;21063;-75
2022/11/27 09:57:43;;;;;;;2.03;1.92;;;4.00;99.90;;;;;;5051120;28;20435;-76
2022/11/27 10:00:16;;;;;;;2.30;1.83;;;4.20;99.90;;;;;;5048072;28;20434;-76
2022/11/27 10:02:43;;;;;;;1.17;0.93;;;4.30;99.90;;;;;;5040440;28;20433;-75
2022/11/27 10:05:24;;;;;;;2.08;1.92;;;4.30;99.90;;;;;;5043946;28;20516;-76
2022/11/27 10:08:15;;;;;;;6.30;1.80;;;4.40;99.90;;;;;;5050347;28;20455;-76
2022/11/27 10:10:45;;;;;;;2.53;1.50;;;4.50;99.90;;;;;;5039376;28;20563;-75
2022/11/27 10:13:31;;;;;;;2.47;1.67;;;4.50;99.90;;;;;;5032326;28;20437;-75
2022/11/27 10:16:36;;;;;;;4.55;2.13;;;4.50;1.00;;;;;;5037991;28;20452;-76
2022/11/27 10:19:33;;;;;;;2.30;1.80;;;4.60;1.00;;;;;;5038496;28;20425;-76
2022/11/27 10:22:09;;;;;;;2.28;2.05;;;4.50;1.00;;;;;;5032350;28;20542;-76
2022/11/27 10:24:54;;;;;;;2.85;2.20;;;4.50;1.00;;;;;;5040084;28;20504;-75
2022/11/27 10:27:32;;;;;;;2.45;1.98;;;4.50;99.90;;;;;;5043941;28;20432;-75
2022/11/27 10:30:02;;;;;;;2.53;2.20;;;4.50;99.90;;;;;;5043116;28;20455;-75
2022/11/27 10:32:32;;;;;;;2.60;2.00;;;4.60;99.90;;;;;;5038400;28;20453;-75
2022/11/27 10:35:22;;;;;;;3.20;2.05;;;4.70;99.90;;;;;;5040209;28;20411;-76
2022/11/27 10:38:20;;;;;;;2.90;1.83;;;4.90;99.90;;;;;;5047468;28;20436;-76
2022/11/27 10:41:02;;;;;;;3.70;1.80;;;4.90;99.90;;;;;;5040348;28;20437;-76
2022/11/27 10:43:29;;;;;;;2.60;2.13;;;5.00;99.90;;;;;;5036886;28;21055;-76
2022/11/27 10:46:15;;;;;;;2.75;1.70;;;5.00;99.90;;;;;;5041330;28;20426;-76
2022/11/27 10:48:42;;;;;;;3.95;2.78;;;4.90;99.90;;;;;;5040124;28;20960;-76
2022/11/27 10:51:15;;;;;;;6.55;3.97;;;4.80;99.90;;;;;;5038879;28;20475;-76
2022/11/27 10:53:48;;;;;;;2.40;1.83;;;4.80;99.90;;;;;;5041822;28;20521;-76
2022/11/27 10:56:38;;;;;;;4.40;2.05;;;4.90;99.90;;;;;;5040721;28;20433;-76
2022/11/27 10:59:10;;;;;;;4.53;3.25;;;4.80;99.90;;;;;;5050974;28;20433;-75
2022/11/27 11:01:46;;;;;;;1.97;1.87;;;4.80;99.90;;;;;;5049134;28;20487;-76
2022/11/27 11:04:18;;;;;;;1.77;1.27;;;4.70;99.90;;;;;;5046050;28;20511;-75
2022/11/27 11:07:28;;;;;;;1.73;1.63;;;4.60;99.90;;;;;;5051920;28;20431;-75
2022/11/27 11:09:55;;;;;;;2.55;1.98;;;4.60;99.90;;;;;;5047855;28;20423;-76
2022/11/27 11:12:22;;;;;;;2.20;1.80;;;4.60;99.90;;;;;;5043120;28;20432;-76
2022/11/27 11:14:58;;;;;;;2.50;2.08;;;4.70;99.90;;;;;;5039809;28;20769;-76
2022/11/27 11:17:35;;;;;;;2.07;1.87;;;4.70;99.90;;;;;;5050033;28;20424;-76
2022/11/27 11:20:21;;;;;;;3.05;1.90;;;4.80;99.90;;;;;;5038443;28;20431;-76
2022/11/27 11:22:48;;;;;;;2.28;2.08;;;5.00;99.90;;;;;;5028304;28;20433;-76
2022/11/27 11:25:20;;;;;;;2.83;1.30;;;5.30;99.90;;;;;;5035205;28;20421;-76
2022/11/27 11:27:49;;;;;;;2.33;2.13;;;5.40;99.90;;;;;;5046909;28;20431;-75
2022/11/27 11:30:38;;;;;;;1.80;1.70;;;5.90;99.90;;;;;;5043433;28;20440;-76
2022/11/27 11:33:12;;;;;;;1.95;1.85;;;6.70;99.90;;;;;;5046361;28;20439;-76
2022/11/27 11:35:39;;;;;;;2.65;2.40;;;7.10;99.90;;;;;;5057751;28;20482;-76
2022/11/27 11:38:16;;;;;;;2.97;2.27;;;7.30;99.90;;;;;;5027520;28;20445;-76
2022/11/27 11:40:55;;;;;;;1.80;1.70;;;7.70;99.90;;;;;;5037484;28;20433;-76
2022/11/27 11:43:34;;;;;;;1.90;1.80;;;8.20;99.90;;;;;;5030997;28;20516;-76
2022/11/27 11:46:14;;;;;;;1.63;1.52;;;8.40;99.90;;;;;;5041260;28;20435;-76
2022/11/27 11:48:52;;;;;;;2.22;2.03;;;8.10;99.90;;;;;;5030690;28;20506;-76
2022/11/27 11:51:36;;;;;;;2.50;2.30;;;7.80;99.90;;;;;;5038872;28;20440;-76
2022/11/27 11:54:20;;;;;;;1.63;1.52;;;7.90;99.90;;;;;;5041406;28;20436;-77
2022/11/27 11:56:51;;;;;;;2.10;2.00;;;8.00;99.90;;;;;;5037742;28;20520;-76
2022/11/27 11:59:41;;;;;;;2.33;2.13;;;8.00;99.90;;;;;;5036374;28;20437;-76
2022/11/27 12:02:19;;;;;;;3.47;1.83;;;8.40;99.90;;;;;;5037654;28;20448;-74
2022/11/27 12:05:05;;;;;;;2.38;2.10;;;9.00;99.90;;;;;;5028965;28;21634;-74
2022/11/27 12:07:44;;;;;;;3.40;1.65;;;9.20;99.90;;;;;;5030626;28;20966;-74
2022/11/27 12:10:47;;;;;;;6.20;1.95;;;9.40;99.90;;;;;;5033254;28;20456;-74
2022/11/27 12:13:23;;;;;;;1.75;1.63;;;10.10;99.90;;;;;;5035695;28;20462;-74
2022/11/27 12:16:33;;;;;;;1.52;1.42;;;10.50;99.90;;;;;;5036564;28;20436;-74
2022/11/27 12:19:26;;;;;;;2.33;2.13;;;11.20;99.90;;;;;;5043935;28;20464;-74
2022/11/27 12:22:23;;;;;;;1.88;1.67;;;11.80;99.90;;;;;;5042136;28;20437;-73
2022/11/27 12:25:18;;;;;;;2.30;2.10;;;11.60;99.90;;;;;;5045993;28;20433;-73
2022/11/27 12:27:44;;;;;;;2.78;1.92;;;10.60;99.90;;;;;;5036678;28;20938;-73
2022/11/27 12:30:25;;;;;;;1.80;1.70;;;9.60;99.90;;;;;;5031639;28;20445;-74
2022/11/27 12:33:12;;;;;;;2.38;1.70;;;8.90;99.90;;;;;;5034041;28;20447;-74
2022/11/27 12:36:00;;;;;;;3.00;1.50;;;8.50;99.90;;;;;;5035446;28;20432;-74
2022/11/27 12:38:46;;;;;;;2.10;1.67;;;8.20;99.90;;;;;;5016827;28;20433;-76
2022/11/27 12:41:42;;;;;;;1.80;1.70;;;8.10;99.90;;;;;;5021366;28;20441;-76
2022/11/27 12:44:39;;;;;;;3.58;2.22;;;8.20;99.90;;;;;;5033434;28;20512;-76
2022/11/27 12:47:16;;;;;;;4.00;2.35;;;8.30;99.90;;;;;;5056373;28;20508;-74
2022/11/27 12:50:22;;;;;;;2.22;2.03;;;8.40;99.90;;;;;;5035931;28;20433;-74
2022/11/27 12:53:17;;;;;;;2.13;1.92;;;8.40;99.90;;;;;;5039302;28;20429;-76
2022/11/27 12:56:32;;;;;;;1.55;1.38;;;8.10;99.90;;;;;;5038926;28;20433;-76
2022/11/27 12:59:10;;;;;;;2.05;1.75;;;7.90;99.90;;;;;;5048101;28;20967;-76
2022/11/27 13:02:01;;;;;;;2.35;2.15;;;7.90;99.90;;;;;;5043504;28;20520;-76
2022/11/27 13:04:36;;;;;;;3.85;1.92;;;7.90;99.90;;;;;;5040671;28;20425;-76
2022/11/27 13:07:10;;;;;;;1.70;1.60;;;8.00;99.90;;;;;;5040389;28;20429;-76
2022/11/27 13:09:49;;;;;;;3.60;1.52;;;7.90;99.90;;;;;;5047826;28;20436;-76
2022/11/27 13:12:23;;;;;;;2.17;1.63;;;7.70;99.90;;;;;;5036781;28;20442;-76
2022/11/27 13:14:56;;;;;;;1.73;1.63;;;7.40;99.90;;;;;;5033761;28;20980;-76
2022/11/27 13:17:38;;;;;;;2.60;1.58;;;7.40;99.90;;;;;;5035510;28;20440;-76
2022/11/27 13:20:13;;;;;;;3.55;2.22;;;7.20;99.90;;;;;;5033398;28;20860;-76
2022/11/27 13:22:42;;;;;;;2.13;1.85;;;7.10;99.90;;;;;;5037599;28;20445;-76
2022/11/27 13:25:16;;;;;;;1.70;1.60;;;7.00;99.90;;;;;;5034820;28;20490;-76
2022/11/27 13:27:47;;;;;;;2.90;2.55;;;6.90;99.90;;;;;;5034211;28;20439;-76
2022/11/27 13:30:35;;;;;;;3.55;1.95;;;7.00;99.90;;;;;;5040271;28;20428;-76